DJ3LE Schleswig DE current weather conditions

sailwx.info

Wind from 180 at 0 knots gusting 1

Air temperature 5.6° C
Dewpoint 5.0° C

Last reported at 2019-Dec-11 18:32 UTC.
Time now 2019-Dec-11 20:00 UTC

Location: N 54°33' E 009°20'.
View on Google Maps.

See reports from other nearby stations

  
Tides and Currents Weather Stations Pressure Air Temp Water Temp Dewpoint Dewpoint Depression Visibility Wind Speed Wind Dir Waves Ship Positions
date/time (UTC)wind fromknots sea level pressurealtimeterstation pressurevisibilityair tempwater tempwave heightnotes
2019-Dec-11 18:32 180 0 gusting 1 5.6
2019-Dec-11 18:17 5.6
2019-Dec-11 17:17 180 0 gusting 1 5.6
2019-Dec-11 13:17 180 2 gusting 4 6.1
2019-Dec-11 12:17 180 1 gusting 6 6.1
2019-Dec-11 09:32 180 5 gusting 10 5.6
2019-Dec-11 08:02 202 5 gusting 8 5.6
2019-Dec-11 07:32 180 4 gusting 10 5.6
2019-Dec-11 07:17 180 3 gusting 8 5.0
2019-Dec-11 06:17 180 5 gusting 8 5.0
2019-Dec-11 04:02 180 8 gusting 14 5.0
2019-Dec-11 02:02 180 6 gusting 16 4.4
2019-Dec-11 01:17 180 5 gusting 10 3.9
2019-Dec-11 00:02 157 6 gusting 12 3.9
2019-Dec-10 20:32 157 6 gusting 12 3.3
2019-Dec-10 19:02 180 6 gusting 12 2.8
2019-Dec-10 17:17 180 3 gusting 7 3.3
2019-Dec-10 13:17 180 4 gusting 10 6.1
2019-Dec-10 10:17 180 1 gusting 2 4.4
2019-Dec-10 10:02 180 0 gusting 2 3.9
2019-Dec-10 09:17 180 1 gusting 4 2.8
2019-Dec-10 03:47 270 5 gusting 6 3.3
2019-Dec-10 01:17 270 5 gusting 6 3.3
2019-Dec-10 00:32 270 5 gusting 6 3.3
2019-Dec-10 00:17 270 5 gusting 6 3.3
2019-Dec-09 23:32 270 5 gusting 6 3.3
2019-Dec-09 21:17 270 1 gusting 4 3.3